Time;durP1;ratioP1;P1;durP2;ratioP2;P2;SDS_P1;SDS_P2;PMS_P1;PMS_P2;Temp;Humidity;BMP_temperature;BMP_pressure;BME280_temperature;BME280_humidity;BME280_pressure;Samples;Min_cycle;Max_cycle;Signal;HPM_P1;HPM_P2
2023/11/17 00:00:05;;;;;;;1.17;0.85;;;6.30;99.90;;;;;;6232110;23;20170;-70
2023/11/17 00:02:32;;;;;;;1.85;0.73;;;6.30;99.90;;;;;;6205859;23;20020;-70
2023/11/17 00:05:00;;;;;;;0.93;0.60;;;6.40;99.90;;;;;;6231431;23;20047;-70
2023/11/17 00:07:28;;;;;;;0.80;0.60;;;6.40;99.90;;;;;;6206079;23;20386;-70
2023/11/17 00:09:56;;;;;;;1.02;0.73;;;6.40;99.90;;;;;;6205308;23;20127;-70
2023/11/17 00:12:23;;;;;;;0.68;0.63;;;6.40;99.90;;;;;;6203275;23;20066;-70
2023/11/17 00:14:50;;;;;;;1.20;0.80;;;6.40;99.90;;;;;;6208943;23;20631;-70
2023/11/17 00:17:17;;;;;;;0.68;0.40;;;6.30;99.90;;;;;;6236591;23;20479;-70
2023/11/17 00:19:45;;;;;;;0.63;0.57;;;6.30;99.90;;;;;;6208564;23;20458;-70
2023/11/17 00:22:15;;;;;;;1.80;0.65;;;6.30;99.90;;;;;;6209584;23;20044;-70
2023/11/17 00:24:43;;;;;;;0.88;0.70;;;6.20;99.90;;;;;;6206169;23;20020;-70
2023/11/17 00:27:11;;;;;;;0.50;0.40;;;6.20;99.90;;;;;;6232484;23;20019;-70
2023/11/17 00:29:37;;;;;;;0.85;0.55;;;6.20;99.90;;;;;;6233909;23;20081;-70
2023/11/17 00:32:05;;;;;;;0.52;0.40;;;6.10;99.90;;;;;;6236206;23;20100;-70
2023/11/17 00:34:32;;;;;;;0.95;0.60;;;6.10;99.90;;;;;;6207875;23;20259;-70
2023/11/17 00:37:03;;;;;;;0.57;0.47;;;6.10;99.90;;;;;;6236432;23;20028;-70
2023/11/17 00:39:32;;;;;;;0.47;0.43;;;6.10;99.90;;;;;;6234132;23;20359;-70
2023/11/17 00:41:59;;;;;;;0.60;0.60;;;6.00;3.40;;;;;;6236332;23;20020;-70
2023/11/17 00:44:25;;;;;;;0.73;0.40;;;6.00;92.00;;;;;;6234973;23;20017;-70
2023/11/17 00:46:53;;;;;;;0.50;0.45;;;6.00;99.90;;;;;;6237058;23;20330;-70
2023/11/17 00:49:20;;;;;;;0.60;0.60;;;6.00;99.90;;;;;;6210170;23;20024;-70
2023/11/17 00:51:48;;;;;;;0.32;0.32;;;6.00;99.90;;;;;;6232894;23;20031;-70
2023/11/17 00:54:15;;;;;;;0.30;0.30;;;6.00;99.90;;;;;;6208747;23;20070;-70
2023/11/17 00:56:42;;;;;;;0.60;0.50;;;6.00;99.90;;;;;;6185157;23;20028;-70
2023/11/17 00:59:11;;;;;;;0.63;0.50;;;6.10;99.90;;;;;;6209823;23;20066;-70
2023/11/17 01:01:39;;;;;;;0.73;0.50;;;6.10;99.90;;;;;;6233617;23;20271;-70
2023/11/17 01:04:06;;;;;;;0.35;0.35;;;6.10;99.90;;;;;;6181009;23;20024;-70
2023/11/17 01:06:33;;;;;;;0.47;0.40;;;6.20;1.00;;;;;;6229122;23;20028;-71
2023/11/17 01:09:00;;;;;;;0.88;0.55;;;6.20;1.00;;;;;;6235533;23;20016;-70
2023/11/17 01:11:27;;;;;;;0.40;0.40;;;6.20;1.00;;;;;;6209790;23;20082;-71
2023/11/17 01:13:54;;;;;;;0.47;0.38;;;6.20;1.00;;;;;;6209678;23;20017;-70
2023/11/17 01:16:21;;;;;;;0.40;0.30;;;6.30;1.00;;;;;;6237048;23;20078;-70
2023/11/17 01:18:48;;;;;;;0.38;0.30;;;6.30;1.00;;;;;;6236251;23;20310;-71
2023/11/17 01:21:15;;;;;;;0.43;0.30;;;6.30;1.00;;;;;;6234360;23;20023;-70
2023/11/17 01:23:42;;;;;;;0.40;0.40;;;6.40;1.00;;;;;;6234882;23;20016;-70
2023/11/17 01:26:09;;;;;;;0.70;0.50;;;6.40;1.00;;;;;;6236098;23;20028;-70
2023/11/17 01:28:36;;;;;;;0.40;0.38;;;6.40;99.90;;;;;;6235127;23;20016;-71
2023/11/17 01:31:04;;;;;;;0.32;0.32;;;6.50;99.90;;;;;;6209182;23;20028;-70
2023/11/17 01:33:31;;;;;;;0.40;0.40;;;6.50;99.90;;;;;;6235831;23;20109;-71
2023/11/17 01:35:58;;;;;;;0.30;0.30;;;6.60;99.90;;;;;;6234537;23;20028;-72
2023/11/17 01:38:26;;;;;;;0.28;0.25;;;6.60;99.90;;;;;;6235137;23;20389;-71
2023/11/17 01:40:56;;;;;;;0.50;0.40;;;6.60;99.90;;;;;;6237663;23;20027;-71
2023/11/17 01:43:24;;;;;;;0.40;0.32;;;6.60;99.90;;;;;;6186809;23;20039;-71
2023/11/17 01:45:52;;;;;;;1.05;0.32;;;6.60;99.90;;;;;;6237812;23;20089;-71
2023/11/17 01:48:19;;;;;;;0.75;0.40;;;6.60;99.90;;;;;;6185941;23;20024;-71
2023/11/17 01:50:46;;;;;;;0.43;0.30;;;6.60;99.90;;;;;;6184713;23;20020;-71
2023/11/17 01:53:13;;;;;;;0.82;0.43;;;6.60;99.90;;;;;;6210641;23;20031;-71
2023/11/17 01:55:40;;;;;;;0.30;0.30;;;6.60;99.90;;;;;;6236068;23;20074;-71
2023/11/17 01:58:08;;;;;;;0.50;0.40;;;6.60;99.90;;;;;;6236903;23;20082;-71
2023/11/17 02:00:35;;;;;;;0.22;0.20;;;6.50;99.90;;;;;;6237635;23;20558;-71
2023/11/17 02:03:01;;;;;;;0.45;0.35;;;6.50;1.00;;;;;;6236358;23;20027;-71
2023/11/17 02:05:28;;;;;;;0.20;0.20;;;6.50;1.00;;;;;;6234853;23;20078;-71
2023/11/17 02:08:29;;;;;;;0.50;0.28;;;6.50;1.00;;;;;;6236031;23;20016;-71
2023/11/17 02:11:02;;;;;;;0.20;0.20;;;6.40;1.00;;;;;;6237611;23;20016;-71
2023/11/17 02:13:36;;;;;;;0.25;0.20;;;6.30;1.00;;;;;;6236838;23;20504;-71
2023/11/17 02:16:03;;;;;;;0.25;0.22;;;6.30;1.00;;;;;;6235608;23;20063;-71
2023/11/17 02:18:31;;;;;;;0.20;0.20;;;6.30;1.00;;;;;;6211606;23;20099;-71
2023/11/17 02:20:58;;;;;;;0.38;0.30;;;6.20;1.00;;;;;;6210220;23;20024;-71
2023/11/17 02:23:26;;;;;;;0.20;0.20;;;6.20;1.00;;;;;;6209785;23;20024;-71
2023/11/17 02:26:24;;;;;;;0.22;0.17;;;6.20;1.00;;;;;;6235597;23;20024;-70
2023/11/17 02:29:06;;;;;;;0.20;0.20;;;6.10;1.00;;;;;;6235737;23;20031;-71
2023/11/17 02:31:34;;;;;;;0.22;0.22;;;6.10;1.00;;;;;;6236529;23;20025;-71
2023/11/17 02:34:05;;;;;;;0.10;0.10;;;6.00;1.00;;;;;;6209164;23;20042;-71
2023/11/17 02:36:35;;;;;;;0.10;0.10;;;6.00;1.00;;;;;;6232146;23;20032;-71
2023/11/17 02:39:13;;;;;;;0.10;0.10;;;5.90;1.00;;;;;;6235965;23;20063;-71
2023/11/17 02:41:47;;;;;;;0.20;0.20;;;5.80;1.00;;;;;;6215531;23;20027;-70
2023/11/17 02:44:16;;;;;;;0.10;0.10;;;5.80;1.00;;;;;;6238235;23;20024;-71
2023/11/17 02:46:46;;;;;;;0.20;0.20;;;5.70;1.00;;;;;;6236533;23;20055;-70
2023/11/17 02:49:28;;;;;;;0.17;0.17;;;5.70;2.00;;;;;;6237893;23;20631;-71
2023/11/17 02:51:56;;;;;;;0.10;0.10;;;5.70;36.30;;;;;;6210325;23;20031;-70
2023/11/17 02:54:24;;;;;;;0.20;0.20;;;5.60;94.60;;;;;;6237752;23;20709;-70
2023/11/17 02:56:51;;;;;;;0.10;0.10;;;5.60;99.90;;;;;;6211229;23;20368;-70
2023/11/17 02:59:19;;;;;;;0.50;0.50;;;5.70;99.90;;;;;;6236466;23;20051;-70
2023/11/17 03:01:46;;;;;;;0.20;0.20;;;5.70;99.90;;;;;;6235852;23;20024;-70
2023/11/17 03:04:16;;;;;;;0.25;0.25;;;5.70;99.90;;;;;;6210501;23;20020;-71
2023/11/17 03:06:48;;;;;;;0.10;0.10;;;5.70;99.90;;;;;;6210650;23;20434;-70
2023/11/17 03:09:16;;;;;;;0.20;0.20;;;5.80;99.90;;;;;;6186831;23;20389;-70
2023/11/17 03:11:47;;;;;;;0.10;0.10;;;5.70;99.90;;;;;;6210780;23;20031;-70
2023/11/17 03:14:15;;;;;;;0.20;0.20;;;5.70;99.90;;;;;;6211107;23;20028;-70
2023/11/17 03:16:42;;;;;;;0.20;0.20;;;5.70;99.90;;;;;;6237513;23;20027;-70
2023/11/17 03:19:12;;;;;;;0.10;0.10;;;5.60;99.90;;;;;;6236235;23;20020;-70
2023/11/17 03:21:44;;;;;;;0.20;0.20;;;5.60;99.90;;;;;;6208724;23;20134;-70
2023/11/17 03:24:17;;;;;;;0.10;0.10;;;5.50;99.90;;;;;;6235330;23;20101;-70
2023/11/17 03:26:47;;;;;;;0.20;0.20;;;5.50;99.90;;;;;;6211128;23;20020;-70
2023/11/17 03:29:15;;;;;;;0.10;0.10;;;5.40;99.90;;;;;;6211073;23;20405;-70
2023/11/17 03:31:48;;;;;;;0.10;0.10;;;5.40;99.90;;;;;;6180501;23;20422;-70
2023/11/17 03:34:29;;;;;;;0.15;0.15;;;5.40;99.90;;;;;;6182403;23;20407;-70
2023/11/17 03:37:01;;;;;;;0.25;0.25;;;5.40;99.90;;;;;;6180522;23;20021;-70
2023/11/17 03:39:41;;;;;;;0.10;0.10;;;5.30;99.90;;;;;;6180282;23;20066;-70
2023/11/17 03:42:15;;;;;;;0.30;0.30;;;5.30;99.90;;;;;;6182745;23;20055;-70
2023/11/17 03:44:43;;;;;;;0.20;0.20;;;5.30;99.90;;;;;;6156940;23;20021;-70
2023/11/17 03:47:10;;;;;;;0.20;0.20;;;5.30;99.90;;;;;;6207573;23;20081;-70
2023/11/17 03:49:36;;;;;;;0.20;0.20;;;5.20;99.90;;;;;;6130644;23;20021;-70
2023/11/17 03:52:04;;;;;;;0.20;0.20;;;5.20;99.90;;;;;;6131461;23;20044;-70
2023/11/17 03:54:32;;;;;;;0.35;0.30;;;5.20;99.90;;;;;;6180555;23;20021;-69
2023/11/17 03:57:03;;;;;;;0.10;0.10;;;5.20;99.90;;;;;;6181223;23;20025;-70
2023/11/17 03:59:30;;;;;;;0.22;0.22;;;5.20;99.90;;;;;;6206824;23;20644;-70
2023/11/17 04:01:57;;;;;;;0.55;0.30;;;5.20;99.90;;;;;;6207212;23;20027;-70
2023/11/17 04:04:25;;;;;;;0.20;0.20;;;5.20;99.90;;;;;;6156143;23;20379;-69
2023/11/17 04:06:54;;;;;;;0.25;0.25;;;5.20;99.90;;;;;;6179862;23;20078;-70
2023/11/17 04:09:23;;;;;;;0.20;0.20;;;5.20;99.90;;;;;;6180747;23;20031;-70
2023/11/17 04:11:54;;;;;;;0.10;0.10;;;5.20;99.90;;;;;;6131938;23;20123;-70
2023/11/17 04:14:21;;;;;;;0.10;0.10;;;5.20;99.90;;;;;;6132962;23;20032;-70
2023/11/17 04:16:49;;;;;;;0.30;0.20;;;5.20;99.90;;;;;;6131516;23;20040;-70
2023/11/17 04:19:19;;;;;;;0.30;0.20;;;5.10;99.90;;;;;;6180801;23;20025;-70
2023/11/17 04:21:48;;;;;;;0.38;0.20;;;5.10;99.90;;;;;;6155538;23;20340;-70
2023/11/17 04:24:16;;;;;;;0.20;0.17;;;5.10;99.90;;;;;;6179946;23;20024;-70
2023/11/17 04:26:44;;;;;;;0.10;0.10;;;5.10;99.90;;;;;;6205290;23;20017;-70
2023/11/17 04:29:11;;;;;;;0.10;0.10;;;5.10;99.90;;;;;;6180920;23;20115;-71
2023/11/17 04:31:38;;;;;;;0.10;0.10;;;5.10;99.90;;;;;;6186159;23;20020;-70
2023/11/17 04:34:05;;;;;;;0.20;0.20;;;5.10;99.90;;;;;;6180287;23;20398;-70
2023/11/17 04:36:32;;;;;;;0.20;0.20;;;5.10;99.90;;;;;;6178484;23;20021;-70
2023/11/17 04:39:00;;;;;;;0.30;0.30;;;5.10;99.90;;;;;;6205243;23;20021;-70
2023/11/17 04:41:28;;;;;;;0.30;0.20;;;5.10;99.90;;;;;;6204767;23;20160;-70
2023/11/17 04:43:54;;;;;;;0.38;0.30;;;5.10;1.00;;;;;;6206678;23;20025;-70
2023/11/17 04:46:21;;;;;;;0.20;0.20;;;5.20;1.00;;;;;;6205121;23;20032;-69
2023/11/17 04:48:49;;;;;;;0.45;0.22;;;5.20;1.00;;;;;;6155654;23;20024;-70
2023/11/17 04:51:16;;;;;;;0.20;0.20;;;5.20;1.00;;;;;;6205302;23;20024;-70
2023/11/17 04:53:43;;;;;;;0.28;0.28;;;5.20;1.00;;;;;;6207080;23;20078;-70
2023/11/17 04:56:13;;;;;;;0.30;0.30;;;5.20;1.00;;;;;;6206827;23;20028;-70
2023/11/17 04:58:40;;;;;;;0.10;0.10;;;5.20;1.00;;;;;;6205618;23;20028;-70
2023/11/17 05:01:07;;;;;;;0.10;0.10;;;5.20;1.00;;;;;;6179892;23;20016;-70
2023/11/17 05:03:35;;;;;;;0.20;0.20;;;5.30;1.00;;;;;;6156644;23;20059;-69
2023/11/17 05:06:06;;;;;;;0.40;0.20;;;5.30;1.00;;;;;;6204042;23;20447;-70
2023/11/17 05:08:33;;;;;;;0.35;0.30;;;5.30;1.00;;;;;;6204569;23;20048;-70
2023/11/17 05:11:00;;;;;;;0.20;0.20;;;5.30;1.00;;;;;;6180687;23;20020;-70
2023/11/17 05:13:27;;;;;;;0.20;0.20;;;5.30;1.00;;;;;;6180845;23;20024;-70
2023/11/17 05:15:54;;;;;;;0.28;0.28;;;5.40;1.00;;;;;;6207404;23;20339;-70
2023/11/17 05:18:21;;;;;;;0.30;0.30;;;5.30;1.00;;;;;;6207110;23;20458;-70
2023/11/17 05:20:48;;;;;;;0.40;0.22;;;5.30;1.00;;;;;;6207987;23;20020;-70
2023/11/17 05:23:16;;;;;;;0.20;0.20;;;5.40;1.00;;;;;;6206872;23;20020;-70
2023/11/17 05:25:43;;;;;;;0.15;0.15;;;5.40;1.00;;;;;;6206955;23;20116;-70
2023/11/17 05:28:10;;;;;;;0.65;0.43;;;5.40;1.00;;;;;;6183193;23;20032;-70
2023/11/17 05:30:37;;;;;;;0.20;0.20;;;5.30;1.00;;;;;;6207029;23;20025;-70
2023/11/17 05:33:04;;;;;;;0.20;0.20;;;5.40;1.00;;;;;;6210853;23;20070;-71
2023/11/17 05:35:37;;;;;;;0.28;0.25;;;5.40;1.00;;;;;;6210379;23;20020;-69
2023/11/17 05:38:04;;;;;;;0.30;0.30;;;5.40;1.00;;;;;;6187991;23;20055;-70
2023/11/17 05:40:34;;;;;;;0.20;0.20;;;5.40;1.00;;;;;;6238528;23;20027;-70
2023/11/17 05:43:01;;;;;;;0.50;0.32;;;5.40;1.00;;;;;;6239221;23;20383;-70
2023/11/17 05:45:28;;;;;;;0.22;0.22;;;5.40;1.00;;;;;;6236131;23;20024;-70
2023/11/17 05:47:54;;;;;;;0.35;0.28;;;5.40;1.00;;;;;;6235014;23;20447;-70
2023/11/17 05:50:21;;;;;;;0.30;0.30;;;5.40;1.00;;;;;;6234376;23;20020;-70
2023/11/17 05:52:49;;;;;;;0.75;0.40;;;5.40;1.00;;;;;;6235843;23;20346;-70
2023/11/17 05:55:17;;;;;;;0.88;0.30;;;5.40;1.00;;;;;;6208630;23;20078;-70
2023/11/17 05:57:44;;;;;;;0.40;0.20;;;5.40;1.00;;;;;;6235218;23;20474;-70
2023/11/17 06:00:18;;;;;;;0.38;0.20;;;5.40;1.00;;;;;;6235943;23;20024;-70
2023/11/17 06:02:45;;;;;;;0.20;0.20;;;5.40;1.00;;;;;;6228164;23;20421;-70
2023/11/17 06:05:13;;;;;;;0.40;0.30;;;5.30;1.00;;;;;;6203201;23;20024;-71
2023/11/17 06:07:41;;;;;;;0.25;0.20;;;5.40;1.00;;;;;;6231296;23;20023;-70
2023/11/17 06:10:08;;;;;;;0.60;0.28;;;5.30;1.00;;;;;;6184774;23;20090;-70
2023/11/17 06:12:36;;;;;;;0.20;0.20;;;5.30;1.00;;;;;;6186035;23;20031;-70
2023/11/17 06:15:04;;;;;;;0.52;0.30;;;5.30;1.00;;;;;;6210203;23;20044;-70
2023/11/17 06:17:31;;;;;;;0.73;0.30;;;5.30;1.00;;;;;;6211103;23;20378;-70
2023/11/17 06:20:00;;;;;;;0.25;0.20;;;5.20;1.00;;;;;;6235940;23;20016;-70
2023/11/17 06:22:30;;;;;;;0.20;0.20;;;5.30;1.00;;;;;;6211166;23;20372;-70
2023/11/17 06:24:57;;;;;;;0.30;0.30;;;5.20;1.00;;;;;;6231138;23;20471;-70
2023/11/17 06:27:27;;;;;;;0.45;0.30;;;5.20;1.00;;;;;;6233876;23;20024;-69
2023/11/17 06:29:55;;;;;;;0.73;0.57;;;5.20;1.00;;;;;;6234870;23;20016;-69
2023/11/17 06:32:22;;;;;;;0.75;0.32;;;5.20;1.00;;;;;;6235470;23;20263;-69
2023/11/17 06:34:49;;;;;;;0.40;0.40;;;5.10;1.00;;;;;;6209220;23;20023;-69
2023/11/17 06:37:17;;;;;;;0.88;0.40;;;5.10;1.00;;;;;;6210471;23;20086;-70
2023/11/17 06:39:44;;;;;;;0.20;0.20;;;5.10;1.00;;;;;;6235592;23;20495;-70
2023/11/17 06:42:11;;;;;;;0.90;0.47;;;5.10;1.00;;;;;;6235303;23;20481;-71
2023/11/17 06:44:37;;;;;;;0.75;0.60;;;5.10;1.00;;;;;;6210255;23;20021;-70
2023/11/17 06:47:06;;;;;;;1.05;0.63;;;5.10;1.00;;;;;;6185656;23;20116;-70
2023/11/17 06:49:33;;;;;;;0.45;0.40;;;5.10;1.00;;;;;;6235397;23;20035;-70
2023/11/17 06:52:01;;;;;;;1.40;0.63;;;5.10;1.00;;;;;;6209542;23;20016;-70
2023/11/17 06:54:29;;;;;;;0.73;0.60;;;5.10;1.00;;;;;;6210381;23;20074;-70
2023/11/17 06:56:56;;;;;;;0.90;0.50;;;5.10;1.00;;;;;;6210296;23;20070;-71
2023/11/17 06:59:23;;;;;;;0.70;0.60;;;5.20;1.00;;;;;;6234171;23;20489;-70
2023/11/17 07:01:50;;;;;;;0.80;0.50;;;5.20;1.00;;;;;;6232215;23;20406;-70
2023/11/17 07:04:19;;;;;;;1.15;0.50;;;5.20;1.00;;;;;;6205601;23;20386;-70
2023/11/17 07:06:47;;;;;;;0.50;0.40;;;5.10;1.00;;;;;;6179111;23;20027;-70
2023/11/17 07:09:19;;;;;;;0.40;0.30;;;5.10;1.00;;;;;;6236454;23;20059;-71
2023/11/17 07:11:47;;;;;;;0.57;0.38;;;5.10;1.00;;;;;;6234594;23;20020;-71
2023/11/17 07:14:16;;;;;;;0.50;0.50;;;5.10;1.00;;;;;;6208972;23;20449;-71
2023/11/17 07:16:44;;;;;;;0.30;0.30;;;5.00;1.00;;;;;;6184987;23;20102;-71
2023/11/17 07:19:16;;;;;;;0.32;0.32;;;5.00;1.00;;;;;;6235229;23;20024;-71
2023/11/17 07:21:50;;;;;;;0.73;0.38;;;5.00;1.00;;;;;;6228554;23;20086;-71
2023/11/17 07:24:18;;;;;;;0.30;0.30;;;5.00;1.00;;;;;;6202842;23;20143;-71
2023/11/17 07:26:45;;;;;;;0.70;0.40;;;4.90;1.00;;;;;;6178164;23;20396;-71
2023/11/17 07:29:18;;;;;;;0.40;0.30;;;5.00;1.00;;;;;;6177899;23;20557;-71
2023/11/17 07:31:46;;;;;;;0.47;0.40;;;5.00;1.00;;;;;;6203295;23;20024;-72
2023/11/17 07:34:16;;;;;;;0.50;0.50;;;4.90;1.00;;;;;;6202030;23;20616;-71
2023/11/17 07:36:45;;;;;;;0.32;0.32;;;4.90;1.00;;;;;;6201931;23;20048;-71
2023/11/17 07:39:13;;;;;;;0.32;0.32;;;4.90;1.00;;;;;;6177889;23;20350;-72
2023/11/17 07:41:40;;;;;;;0.20;0.20;;;4.90;1.00;;;;;;6202526;23;20020;-71
2023/11/17 07:44:11;;;;;;;0.73;0.40;;;4.90;1.00;;;;;;6227151;23;20593;-72
2023/11/17 07:46:38;;;;;;;0.40;0.40;;;4.90;1.00;;;;;;6203031;23;20113;-73
2023/11/17 07:49:12;;;;;;;0.63;0.50;;;4.90;1.00;;;;;;6227851;23;20035;-72
2023/11/17 07:51:39;;;;;;;0.20;0.20;;;4.80;1.00;;;;;;6201380;23;20020;-72
2023/11/17 07:54:11;;;;;;;0.22;0.20;;;4.80;1.00;;;;;;6227844;23;20114;-71
2023/11/17 07:56:40;;;;;;;0.30;0.30;;;4.90;1.00;;;;;;6178356;23;20055;-72
2023/11/17 07:59:10;;;;;;;0.30;0.30;;;4.80;1.00;;;;;;6175348;23;20522;-72
2023/11/17 08:01:39;;;;;;;0.75;0.60;;;4.90;1.00;;;;;;6202310;23;20016;-72
2023/11/17 08:04:08;;;;;;;0.63;0.43;;;4.90;1.00;;;;;;6202735;23;20107;-72
2023/11/17 08:06:36;;;;;;;0.30;0.30;;;5.00;1.00;;;;;;6202284;23;20020;-72
2023/11/17 08:09:04;;;;;;;0.30;0.30;;;5.10;1.00;;;;;;6226780;23;20027;-72
2023/11/17 08:11:31;;;;;;;0.47;0.40;;;5.10;1.00;;;;;;6228323;23;20096;-72
2023/11/17 08:13:57;;;;;;;0.40;0.30;;;5.10;1.00;;;;;;6202849;23;20031;-72
2023/11/17 08:16:26;;;;;;;0.28;0.28;;;5.10;1.00;;;;;;6227676;23;20016;-72
2023/11/17 08:18:53;;;;;;;0.25;0.25;;;5.20;1.00;;;;;;6227477;23;20050;-73
2023/11/17 08:21:25;;;;;;;0.40;0.40;;;5.20;1.00;;;;;;6225380;23;20028;-72
2023/11/17 08:23:52;;;;;;;0.40;0.40;;;5.20;1.00;;;;;;6174990;23;20020;-72
2023/11/17 08:26:19;;;;;;;0.80;0.50;;;5.20;1.00;;;;;;6202428;23;20026;-71
2023/11/17 08:28:46;;;;;;;0.68;0.50;;;5.20;1.00;;;;;;6203604;23;20031;-72
2023/11/17 08:31:14;;;;;;;0.30;0.30;;;5.30;1.00;;;;;;6231307;23;20027;-71
2023/11/17 08:33:42;;;;;;;0.40;0.40;;;5.30;1.00;;;;;;6232197;23;20540;-72
2023/11/17 08:36:10;;;;;;;0.60;0.32;;;5.30;1.00;;;;;;6229977;23;20031;-72
2023/11/17 08:38:44;;;;;;;0.77;0.55;;;5.30;1.00;;;;;;6208066;23;20028;-72
2023/11/17 08:41:10;;;;;;;0.40;0.35;;;5.40;1.00;;;;;;6234860;23;20020;-72
2023/11/17 08:43:38;;;;;;;0.63;0.43;;;5.40;1.00;;;;;;6209125;23;20051;-72
2023/11/17 08:46:06;;;;;;;0.57;0.57;;;5.50;1.00;;;;;;6185448;23;20024;-72
2023/11/17 08:48:36;;;;;;;0.93;0.60;;;5.50;1.00;;;;;;6210054;23;20048;-72
2023/11/17 08:51:03;;;;;;;0.70;0.52;;;5.50;1.00;;;;;;6210751;23;20028;-72
2023/11/17 08:53:30;;;;;;;0.95;0.68;;;5.60;1.00;;;;;;6211392;23;20020;-72
2023/11/17 08:56:00;;;;;;;0.50;0.50;;;5.60;1.00;;;;;;6236658;23;20923;-72
2023/11/17 08:58:28;;;;;;;0.63;0.52;;;5.70;1.00;;;;;;6188206;23;20090;-72
2023/11/17 09:00:57;;;;;;;0.73;0.50;;;5.70;1.00;;;;;;6237071;23;20016;-72
2023/11/17 09:03:25;;;;;;;0.65;0.50;;;5.80;1.00;;;;;;6236595;23;20024;-72
2023/11/17 09:05:52;;;;;;;0.85;0.60;;;5.80;1.00;;;;;;6210321;23;20075;-72
2023/11/17 09:08:19;;;;;;;1.85;0.95;;;5.80;1.00;;;;;;6236568;23;20028;-72
2023/11/17 09:10:47;;;;;;;0.55;0.50;;;5.90;1.00;;;;;;6210070;23;20024;-78
2023/11/17 09:13:16;;;;;;;1.02;0.50;;;5.90;99.90;;;;;;6209216;23;20082;-72
2023/11/17 09:15:44;;;;;;;0.73;0.60;;;6.00;1.00;;;;;;6211971;23;20016;-82
2023/11/17 09:18:13;;;;;;;1.75;0.80;;;6.00;99.90;;;;;;6184032;23;20043;-82
2023/11/17 09:20:40;;;;;;;1.67;0.70;;;6.10;99.90;;;;;;6173692;23;20051;-81
2023/11/17 09:23:07;;;;;;;1.15;1.00;;;6.10;99.90;;;;;;6225420;23;20430;-83
2023/11/17 09:25:34;;;;;;;3.92;2.10;;;6.20;99.90;;;;;;6233574;23;20599;-82
2023/11/17 09:28:02;;;;;;;1.98;0.90;;;6.20;99.90;;;;;;6204220;23;20142;-81
2023/11/17 09:30:30;;;;;;;1.98;0.80;;;6.30;99.90;;;;;;6228937;23;20044;-82
2023/11/17 09:32:59;;;;;;;2.00;0.85;;;6.30;99.90;;;;;;6229098;23;20028;-83
2023/11/17 09:35:26;;;;;;;0.93;0.60;;;6.30;99.90;;;;;;6204154;23;20442;-82
2023/11/17 09:37:59;;;;;;;0.80;0.65;;;6.40;99.90;;;;;;6205270;23;20877;-81
2023/11/17 09:40:29;;;;;;;;;;;6.40;99.90;;;;;;6230391;23;20090;-82
2023/11/17 09:42:57;;;;;;;1.05;0.63;;;6.50;99.90;;;;;;6206733;23;19923;-82
2023/11/17 09:45:25;;;;;;;1.05;0.70;;;6.50;99.90;;;;;;6204502;23;20103;-81
2023/11/17 09:47:53;;;;;;;1.50;0.90;;;6.60;99.90;;;;;;6177680;23;20026;-82
2023/11/17 09:50:27;;;;;;;0.50;0.50;;;6.60;99.90;;;;;;6227919;23;20031;-82
2023/11/17 09:52:55;;;;;;;1.35;0.80;;;6.70;72.70;;;;;;6181534;23;20096;-81
2023/11/17 09:55:23;;;;;;;0.70;0.60;;;6.70;82.40;;;;;;6180465;23;20473;-82
2023/11/17 09:57:55;;;;;;;1.23;0.70;;;6.70;20.90;;;;;;6180182;23;20375;-82
2023/11/17 10:00:27;;;;;;;3.25;1.00;;;6.80;1.00;;;;;;6205020;23;20051;-81
2023/11/17 10:03:01;;;;;;;0.83;0.63;;;6.80;99.90;;;;;;6181340;23;20039;-82
2023/11/17 10:05:35;;;;;;;0.90;0.73;;;6.90;99.90;;;;;;6204488;23;20107;-82
2023/11/17 10:08:15;;;;;;;0.65;0.50;;;6.90;99.90;;;;;;6177716;23;20083;-81
2023/11/17 10:10:46;;;;;;;2.20;0.70;;;7.00;95.80;;;;;;6228861;23;20021;-82
2023/11/17 10:13:14;;;;;;;0.98;0.57;;;7.00;1.00;;;;;;6179557;23;20028;-81
2023/11/17 10:15:45;;;;;;;1.13;0.73;;;7.10;99.90;;;;;;6204482;23;20024;-81
2023/11/17 10:18:20;;;;;;;1.63;0.90;;;7.10;99.90;;;;;;6180525;23;20147;-80
2023/11/17 10:20:47;;;;;;;;;;;7.20;99.90;;;;;;6203999;23;20024;-82
2023/11/17 10:23:16;;;;;;;0.55;0.47;;;7.20;99.90;;;;;;6204007;23;19923;-80
2023/11/17 10:25:43;;;;;;;0.90;0.50;;;7.20;99.90;;;;;;6180805;23;20064;-80
2023/11/17 10:28:12;;;;;;;0.98;0.60;;;7.30;1.00;;;;;;6204336;23;20055;-80
2023/11/17 10:30:42;;;;;;;1.10;0.50;;;7.30;99.90;;;;;;6179308;23;20776;-81
2023/11/17 10:33:21;;;;;;;0.70;0.35;;;7.40;99.90;;;;;;6228859;23;20078;-80
2023/11/17 10:36:00;;;;;;;1.73;0.77;;;7.40;99.90;;;;;;6229306;23;20032;-80
2023/11/17 10:38:27;;;;;;;0.77;0.47;;;7.50;99.90;;;;;;6228323;23;20024;-80
2023/11/17 10:41:10;;;;;;;1.00;0.50;;;7.50;1.00;;;;;;6200924;23;20103;-79
2023/11/17 10:43:50;;;;;;;0.75;0.60;;;7.50;1.00;;;;;;6228109;23;20738;-81
2023/11/17 10:46:29;;;;;;;0.68;0.65;;;7.60;1.00;;;;;;6229431;23;20089;-81
2023/11/17 10:49:01;;;;;;;1.80;0.90;;;7.60;99.90;;;;;;6202488;23;20032;-81
2023/11/17 10:51:28;;;;;;;1.33;0.70;;;7.70;99.90;;;;;;6226904;23;20032;-81
2023/11/17 10:54:12;;;;;;;1.30;0.95;;;7.80;49.70;;;;;;6204217;23;20024;-81
2023/11/17 10:56:40;;;;;;;3.97;1.35;;;7.80;99.90;;;;;;6203554;23;20023;-81
2023/11/17 10:59:09;;;;;;;1.65;0.85;;;7.80;99.90;;;;;;6203889;23;20024;-80
2023/11/17 11:01:40;;;;;;;2.55;0.90;;;7.90;99.90;;;;;;6178067;23;20024;-79
2023/11/17 11:04:15;;;;;;;1.50;0.60;;;8.00;98.80;;;;;;6201647;23;20024;-81
2023/11/17 11:06:43;;;;;;;0.95;0.60;;;8.00;99.90;;;;;;6203500;23;20020;-80
2023/11/17 11:09:16;;;;;;;1.40;0.55;;;8.10;99.90;;;;;;6179017;23;20028;-80
2023/11/17 11:11:50;;;;;;;0.98;0.50;;;8.20;18.60;;;;;;6180102;23;20108;-81
2023/11/17 11:14:20;;;;;;;0.80;0.40;;;8.30;1.00;;;;;;6202102;23;20338;-81
2023/11/17 11:16:48;;;;;;;1.17;0.40;;;8.40;1.00;;;;;;6203321;23;20394;-81
2023/11/17 11:19:16;;;;;;;0.75;0.45;;;8.40;99.90;;;;;;6178306;23;20743;-81
2023/11/17 11:21:58;;;;;;;1.38;0.73;;;8.50;99.90;;;;;;6179656;23;20020;-81
2023/11/17 11:24:33;;;;;;;1.67;0.60;;;8.60;99.90;;;;;;6179996;23;20039;-81
2023/11/17 11:27:05;;;;;;;1.20;0.40;;;8.60;99.90;;;;;;6204893;23;20039;-81
2023/11/17 11:29:38;;;;;;;1.40;0.47;;;8.70;99.90;;;;;;6203623;23;20526;-80
2023/11/17 11:32:06;;;;;;;1.15;0.73;;;8.80;99.90;;;;;;6186372;23;20039;-81
2023/11/17 11:34:34;;;;;;;0.88;0.43;;;8.80;99.90;;;;;;6171328;23;20087;-80
2023/11/17 11:37:03;;;;;;;0.98;0.50;;;8.90;99.90;;;;;;6170694;23;20028;-81
2023/11/17 11:39:33;;;;;;;0.88;0.50;;;8.90;99.90;;;;;;6144176;23;20052;-82
2023/11/17 11:42:03;;;;;;;1.63;1.08;;;9.00;99.90;;;;;;6145859;23;20024;-82
2023/11/17 11:44:33;;;;;;;1.40;0.50;;;9.10;99.90;;;;;;6173135;23;20024;-82
2023/11/17 11:47:00;;;;;;;1.00;0.50;;;9.10;99.90;;;;;;6146174;23;20028;-82
2023/11/17 11:49:27;;;;;;;0.82;0.60;;;9.20;99.90;;;;;;6198229;23;20064;-80
2023/11/17 11:51:58;;;;;;;1.05;0.40;;;9.40;99.90;;;;;;6148125;23;20362;-81
2023/11/17 11:54:26;;;;;;;2.33;0.80;;;9.60;99.90;;;;;;6173494;23;20068;-81
2023/11/17 11:56:57;;;;;;;1.88;1.27;;;9.70;92.70;;;;;;6149585;23;20456;-82
2023/11/17 11:59:24;;;;;;;1.48;0.77;;;9.80;89.00;;;;;;6174062;23;20650;-81
2023/11/17 12:01:52;;;;;;;1.83;1.00;;;10.00;86.20;;;;;;6197684;23;20017;-81
2023/11/17 12:04:20;;;;;;;1.33;0.80;;;10.10;65.10;;;;;;6148345;23;20039;-82
2023/11/17 12:06:47;;;;;;;2.00;1.00;;;10.20;41.70;;;;;;6171775;23;20021;-83
2023/11/17 12:09:22;;;;;;;1.70;0.88;;;10.40;37.40;;;;;;6174945;23;20036;-82
2023/11/17 12:11:52;;;;;;;1.00;0.57;;;10.50;45.70;;;;;;6150071;23;20505;-82
2023/11/17 12:14:26;;;;;;;0.85;0.57;;;10.80;34.90;;;;;;6148828;23;20038;-82
2023/11/17 12:16:58;;;;;;;1.02;0.70;;;10.90;25.20;;;;;;6149500;23;20056;-81
2023/11/17 12:19:27;;;;;;;3.22;0.90;;;11.00;9.40;;;;;;6173834;23;20021;-80
2023/11/17 12:21:54;;;;;;;0.90;0.43;;;11.10;9.00;;;;;;6148839;23;20443;-81
2023/11/17 12:24:23;;;;;;;1.17;0.50;;;11.30;5.60;;;;;;6172916;23;20170;-82
2023/11/17 12:27:02;;;;;;;0.90;0.40;;;11.50;3.30;;;;;;6174214;23;20030;-81
2023/11/17 12:29:31;;;;;;;1.25;0.60;;;11.70;1.00;;;;;;6173480;23;20099;-80
2023/11/17 12:32:08;;;;;;;1.10;0.55;;;11.80;1.00;;;;;;6162429;23;20023;-82
2023/11/17 12:34:45;;;;;;;0.75;0.47;;;12.00;1.00;;;;;;6226969;23;20028;-82
2023/11/17 12:37:14;;;;;;;0.45;0.30;;;12.40;1.00;;;;;;6204515;23;20024;-82
2023/11/17 12:39:42;;;;;;;1.27;0.70;;;12.60;1.00;;;;;;6203233;23;20044;-82
2023/11/17 12:42:19;;;;;;;0.30;0.28;;;12.70;1.00;;;;;;6203641;23;20020;-82
2023/11/17 12:44:46;;;;;;;0.47;0.40;;;12.80;1.00;;;;;;6228835;23;20585;-81
2023/11/17 12:47:13;;;;;;;1.23;0.63;;;12.90;1.00;;;;;;6201342;23;20024;-82
2023/11/17 12:49:55;;;;;;;1.13;0.50;;;12.90;1.00;;;;;;6182804;23;20024;-82
2023/11/17 12:52:23;;;;;;;1.20;0.50;;;12.90;1.00;;;;;;6178470;23;20024;-81
2023/11/17 12:55:07;;;;;;;1.13;0.63;;;13.00;1.00;;;;;;6227647;23;20134;-81
2023/11/17 12:57:35;;;;;;;0.70;0.40;;;13.20;1.00;;;;;;6202100;23;20107;-80
2023/11/17 13:00:12;;;;;;;0.90;0.50;;;13.40;1.00;;;;;;6177156;23;20024;-81
2023/11/17 13:02:43;;;;;;;0.60;0.28;;;13.60;1.00;;;;;;6228069;23;20024;-82
2023/11/17 13:05:11;;;;;;;0.60;0.30;;;13.70;1.00;;;;;;6175836;23;20051;-81
2023/11/17 13:07:38;;;;;;;1.27;0.50;;;13.80;1.00;;;;;;6202577;23;20468;-81
2023/11/17 13:10:08;;;;;;;1.58;0.60;;;14.00;1.00;;;;;;6202536;23;20070;-80
2023/11/17 13:12:34;;;;;;;1.20;0.52;;;14.10;1.00;;;;;;6228065;23;20118;-81